Last 365 Observations

Top of 22

Daily Data | America/Los_Angeles
as of 2/5/23 10:35 PM PST
Date Daily Max Temp (°F) Time of Max Temp Daily Min Temp (°F) Time of Min Temp Wind Spd (mph) Daily Max Wind (mph) Time of Max Wind Max Wind Dir (°) Dew Pt (°F) Max RH (%) Min RH (%) Wet Bulb (°F) Max Wet Bulb Temp (°F) Min Wet Bulb Temp (°F) WetB Hrs <28F (hrs) Hrs <= 32F (hrs) Min Wind Chill (°F) Wind Chill Time Heat Index Max Time
2/4/23 32.8 1005 21.2 2359 71.2 92.8 2359 SSW | 198 16.5 97 12 21.0 26.1 18.6 23.1 22.7 -6.3 2359 -
2/3/23 30.5 0030 21.2 1927 41.7 73.3 0321 SW | 224 5.6 60 20 19.6 24.0 18.0 - - -1.6 1801 -
2/2/23 35.3 1116 25.0 0614 21.2 39.5 0357 SW | 222 5.9 48 26 22.8 27.6 19.7 - 18.9 6.9 0352 -
2/1/23 34.3 1253 16.2 0023 5.8 22.3 2347 S | 191 5.3 55 29 19.6 27.6 12.4 - 22.1 -1.1 0005 -
1/31/23 22.2 1325 5.1 0001 17.4 33.2 0044 NNE | 20 -9.7 43 23 10.5 17.2 2.4 - - -18.8 0044 -
1/30/23 15.9 1331 1.9 1841 18.0 43.1 1843 NNE | 15 -1.1 94 31 5.4 15.4 0.6 - - -26.4 1843 -
1/29/23 20.5 0012 4.4 2334 27.8 68.2 0140 SW | 215 6.1 94 24 11.2 16.2 4.3 - - -18.8 2227 -
1/28/23 31.8 1101 17.9 0015 21.2 60.1 2340 SW | 223 -4.0 67 14 19.1 23.7 13.6 - - -3.5 2340 -
1/27/23 36.6 1210 18.0 2319 19.6 46.3 0743 WNW | 298 -0.5 54 14 22.2 27.7 14.6 - 18.4 2.6 2106 -
1/26/23 33.2 1601 11.1 0554 16.6 41.7 0606 N | 4 -1.3 94 13 19.2 26.0 11.0 - 22.8 -12.9 0606 -
1/25/23 25.4 1208 14.2 0654 16.3 46.8 1154 N | 3 9.0 76 44 17.2 22.2 12.7 - - -4.3 0712 -
1/24/23 31.7 1558 16.4 0200 12.4 31.8 0004 NNW | 348 2.5 84 26 18.2 25.3 12.2 - - -3.1 0146 -
1/23/23 21.4 2058 2.2 0443 27.4 64.3 0005 N | 2 -0.3 94 14 8.9 15.8 2.4 - - -28.4 0023 -
1/22/23 29.1 0537 3.9 2353 23.8 63.4 2359 N | 1 2.4 96 16 12.6 22.0 3.9 - - -28.1 2359 -
1/21/23 33.0 1609 11.6 0347 6.8 75.4 0702 SSW | 193 9.2 99 22 22.2 27.8 11.4 - - -18.1 0339 -
1/18/23 24.8 1216 7.3 0138 25.9 56.6 2254 SSW | 213 15.8 98 83 17.3 24.5 7.2 23.7 23.7 -13.1 2356 -
1/17/23 14.8 1301 6.9 0659 10.9 31.8 2129 N | 6 7.9 96 90 9.5 14.5 6.8 - - -14.6 2129 -
1/16/23 20.2 0449 8.0 2218 28.8 79.7 0434 SE | 128 12.5 98 92 13.5 20.0 8.0 - - -18.9 1224 -
1/15/23 17.6 2359 10.6 1803 30.3 73.5 0952 SW | 216 11.8 97 92 12.9 17.4 10.5 - - -17.9 1433 -
1/14/23 21.7 1008 15.5 2100 26.0 81.5 0030 SW | 227 18.6 98 95 19.0 21.4 15.2 - - -10.4 2130 -
1/13/23 28.8 0546 20.1 2140 31.9 85.6 2325 SW | 215 23.8 100 97 24.0 28.6 19.8 22.2 - -6.9 2325 -
1/12/23 31.6 1355 25.6 0722 20.2 55.5 2349 SW | 214 28.4 100 98 28.4 31.5 25.4 10.9 - 7.0 2349 -
1/11/23 28.4 2359 9.9 0419 29.0 63.6 0447 WSW | 254 19.3 100 93 19.7 28.3 9.8 23.7 - -18.4 0439 -
1/10/23 23.4 0003 11.8 2328 29.5 96.7 0717 SW | 225 15.7 100 94 16.4 23.3 11.6 - - -16.3 1557 -
1/9/23 28.9 1153 19.6 0134 36.2 87.7 2147 SSW | 197 24.5 100 96 24.4 28.8 19.3 22.4 23.3 -7.5 0200 -
1/8/23 23.2 1850 15.7 0300 29.3 76.2 2031 SSW | 202 19.6 99 95 20.0 23.0 15.4 - - -11.6 0103 -
1/7/23 20.7 1306 16.1 0633 34.4 88.2 1941 SW | 220 16.6 97 91 17.5 20.2 15.8 - - -11.9 1941 -
1/6/23 25.4 1304 11.1 0341 14.0 48.7 0021 SSW | 213 17.4 98 93 18.1 25.1 10.9 - - -13.6 0258 -
1/5/23 23.3 0024 14.1 2359 22.9 87.4 0411 SW | 234 18.2 98 94 18.8 23.1 13.8 - - -8.9 1246 -
1/4/23 24.7 0936 20.1 0726 25.2 88.2 1642 SW | 222 22.3 99 96 22.6 24.5 19.8 - - -2.8 1642 -
1/3/23 21.1 2354 14.1 0747 41.0 74.6 0156 SW | 223 15.1 97 94 16.0 20.8 13.8 - - -11.9 0156 -
1/2/23 17.0 1831 5.0 0428 29.3 86.7 1518 SW | 230 9.3 97 89 10.8 16.7 5.0 - - -22.2 1542 -
1/1/23 21.3 0001 8.2 2354 17.3 43.8 0840 ESE | 104 11.8 96 91 13.1 20.9 8.0 - - -14.1 2001 -
12/31/22 29.6 0155 21.3 0001 27.6 105.7 0743 SSE | 162 26.2 100 96 26.2 29.5 20.9 17.3 - 0.4 1534 -
12/30/22 30.9 1247 23.2 0024 49.9 105.5 1300 SW | 235 30.0 100 97 29.9 30.8 22.8 7.6 23.3 -0.5 0053 -
12/29/22 25.8 1440 14.3 0338 38.8 85.8 0133 SW | 219 20.7 99 90 21.2 25.6 14.0 - - -15.1 0133 -
12/28/22 21.9 0005 14.1 0853 28.0 62.7 2319 SSW | 212 15.5 97 90 16.6 21.5 13.7 - - -11.8 2337 -
12/27/22 28.0 0706 21.8 2119 37.9 100.0 0014 SSW | 211 24.6 99 96 24.8 27.8 21.4 - - -0.3 2126 -
12/26/22 41.8 1107 25.2 2243 39.9 92.6 2151 SW | 219 17.7 99 31 29.8 32.8 24.8 7.0 4.9 0.2 2243 -
12/25/22 49.6 1237 34.2 0001 7.7 37.0 2246 SSW | 208 18.2 50 31 32.5 38.7 28.1 0.0 0.0 26.0 2359 -
12/24/22 47.8 1405 31.8 0318 4.8 18.9 0008 NW | 307 12.2 47 23 30.5 37.0 24.9 6.1 0.2 23.5 0008 -
12/23/22 42.5 1455 25.8 0138 15.0 60.0 0341 SW | 218 14.2 80 18 27.8 33.1 22.4 10.0 9.0 5.2 0341 -
12/22/22 38.6 0943 28.6 2347 19.0 51.8 2136 SW | 221 4.2 51 16 26.4 29.3 23.1 18.2 6.1 10.5 2343 -
12/21/22 37.3 1206 21.3 0212 10.8 44.6 1320 SW | 217 11.2 77 25 24.9 30.5 19.4 19.0 10.0 9.7 0027 -
12/20/22 30.2 1520 20.6 0354 24.2 59.9 0013 SW | 219 10.0 85 29 20.3 25.9 15.7 - - -2.2 0341 -
12/19/22 30.4 1132 22.6 2235 22.0 54.4 2349 SW | 218 -5.6 36 15 19.6 22.9 17.0 - - 0.2 2350 -
12/18/22 32.3 1126 22.8 2116 12.1 30.3 1450 WSW | 256 -3.6 48 16 20.0 24.2 17.1 - 23.7 7.2 0424 -
12/17/22 33.8 1347 22.4 2003 4.0 27.9 1241 SW | 224 -3.9 41 13 20.9 25.7 17.3 - 19.4 18.0 0848 -
12/16/22 37.6 1521 20.3 0117 3.9 23.1 1723 SW | 231 -4.5 40 13 20.7 28.2 15.0 24.0 19.0 10.1 0301 -
12/15/22 29.1 1526 18.1 0722 5.4 22.4 0629 N | 1 0.4 90 12 18.0 22.6 13.9 - - 1.1 0636 -
12/14/22 30.5 1522 13.5 0037 8.0 29.3 0530 NNE | 14 14.7 92 50 19.9 28.0 11.6 - - -6.0 0248 -
12/13/22 23.3 1539 7.6 0538 5.3 27.7 1059 NNW | 348 12.1 97 90 13.5 22.9 7.4 - - -11.5 0719 -
12/12/22 15.5 1150 6.3 0001 7.0 32.2 0001 SSW | 212 7.5 94 90 9.3 15.1 6.2 - - -18.2 0001 -
12/11/22 32.0 0101 5.0 2251 33.6 107.6 0245 SSW | 194 6.6 99 3 8.5 21.9 5.0 21.1 21.1 -24.0 2145 -
12/10/22 23.9 1636 16.2 0735 33.9 109.4 2153 SE | 131 19.0 98 21 20.1 23.6 15.2 23.3 23.3 -10.9 0718 -
12/9/22 21.2 1328 13.0 0324 45.0 66.8 0354 SSW | 213 7.0 95 25 15.5 18.0 12.4 - - -15.1 0324 -
12/8/22 21.5 1142 11.8 0415 36.6 66.5 1943 SW | 221 3.8 92 27 13.0 16.5 10.7 - - -12.0 2214 -
12/7/22 20.8 1043 11.2 2143 10.7 43.1 1509 WSW | 238 12.9 95 90 14.3 20.4 10.9 - - -8.4 1509 -
12/6/22 21.0 1327 9.2 0709 10.4 43.2 0109 SSW | 201 12.9 95 90 14.3 20.5 9.0 - - -12.4 0128 -
12/5/22 20.4 0003 12.0 2328 24.8 49.7 0601 SE | 139 15.9 96 92 16.9 20.0 11.7 - - -12.6 2240 -
12/4/22 26.7 0026 19.8 1443 27.3 90.4 0742 SE | 144 22.1 99 94 22.5 26.5 19.4 - - -4.1 1434 -
12/3/22 28.9 1542 21.1 0025 22.0 55.9 0036 SSW | 194 23.4 99 20 25.2 28.6 16.5 20.5 - -1.2 0025 -
12/2/22 26.4 2122 11.2 0535 26.8 68.8 0052 SW | 219 0.2 96 9 16.4 20.1 10.8 23.2 23.2 -15.9 0339 -
12/1/22 21.7 0014 15.8 0542 37.1 84.3 2359 SSW | 207 15.1 94 60 17.6 18.9 15.4 - - -13.3 2359 -
11/30/22 27.8 0121 18.4 2022 37.9 69.0 2350 SSW | 202 4.1 84 15 19.1 21.5 17.2 - - -6.3 2248 -
11/29/22 34.9 1443 20.0 0012 17.4 49.3 0127 W | 270 -3.7 34 15 21.2 26.3 14.2 - 20.3 -1.3 0011 -
11/28/22 27.6 0004 17.2 1936 40.0 87.7 1320 SW | 225 5.4 96 11 16.6 21.2 13.6 23.6 23.6 -6.8 1659 -
11/27/22 37.0 1100 27.3 2333 31.0 60.2 2359 SSW | 205 -9.0 38 6 23.5 27.1 19.5 - 9.8 6.5 2330 -
11/26/22 37.4 1304 23.8 2005 15.8 42.2 0250 SW | 225 4.2 82 4 24.8 30.5 17.6 20.6 11.4 10.8 1917 -
11/25/22 45.6 1527 35.0 2351 17.9 38.2 2331 WSW | 247 6.9 37 18 29.7 34.4 26.4 3.1 0.0 20.4 2338 -
11/24/22 40.7 1542 27.3 0651 10.1 30.4 0710 NE | 42 -2.0 35 12 24.4 30.1 20.0 22.4 11.2 11.6 0710 -
11/23/22 38.8 1447 28.6 2155 9.2 26.3 1955 NNE | 13 0.8 63 11 24.7 29.0 20.7 22.7 13.0 14.8 2247 -
11/22/22 42.3 1504 27.5 0001 4.7 19.3 2334 N | 8 3.1 59 8 25.8 32.8 20.0 17.7 11.8 18.5 0104 -
11/21/22 42.7 1314 26.6 2354 2.8 17.8 0455 W | 268 -6.2 66 6 24.3 31.0 19.8 20.1 14.6 15.7 0549 -
11/20/22 40.8 1304 28.4 2059 3.0 19.0 0445 SW | 224 -10.1 27 5 23.7 29.9 20.4 20.9 14.4 18.5 0133 -
11/19/22 32.9 2305 14.8 0218 8.0 26.4 0422 N | 349 -10.9 42 7 17.2 25.0 10.8 - 23.8 -4.4 0541 -
11/18/22 29.5 0001 12.7 2057 8.9 29.7 1310 NNE | 12 5.0 90 18 18.5 24.6 11.2 - - -6.0 2104 -
11/17/22 43.5 1156 27.3 0002 9.1 29.3 1548 WSW | 239 0.0 39 8 25.6 31.9 20.4 17.8 10.3 16.5 2204 -
11/16/22 36.1 1510 17.4 0142 7.9 32.5 0045 N | 2 -5.2 48 14 19.6 28.0 13.8 - 20.2 -1.6 0115 -
11/15/22 24.2 1106 12.4 0647 10.5 31.5 2346 NNE | 17 7.6 95 25 15.8 21.1 12.0 - - -8.3 0646 -
11/14/22 32.3 1043 16.6 2345 8.5 29.2 1115 SW | 216 2.6 76 21 20.2 25.4 14.9 - 23.4 7.6 2224 -
11/13/22 23.6 2303 10.3 0540 12.2 38.0 0700 NW | 325 5.2 95 25 13.6 18.0 10.0 - - -13.6 0659 -
11/12/22 21.4 1329 13.6 2321 39.9 58.7 0459 SW | 215 9.3 95 36 16.1 20.6 13.3 - - -9.6 2249 -
11/11/22 27.3 1040 15.1 0001 14.3 45.9 2248 SW | 219 21.3 100 92 21.8 27.1 14.6 - - -0.9 2357 -
11/10/22 24.8 1554 8.9 0647 4.4 24.4 0334 WNW | 299 13.1 98 89 14.6 24.5 8.6 - - -9.7 0241 -
11/9/22 16.6 1549 7.7 2302 2.1 29.1 1537 WSW | 258 9.8 94 89 11.4 16.2 7.5 - - -6.2 1621 -
11/8/22 21.8 1122 11.5 2246 0.8 0.8 1042 SW | 214 14.5 97 92 15.5 21.5 11.2 - - 11.5 2246 -
11/7/22 28.2 0055 12.3 2114 0.8 0.8 1626 SW | 214 20.9 100 92 21.4 28.1 12.0 23.6 - 12.3 2114 -
11/6/22 31.0 0939 26.9 2239 5.2 40.6 0238 SSW | 213 29.6 100 99 29.5 30.9 26.7 4.2 - 13.4 0238 -
11/5/22 39.5 1203 30.1 0036 31.6 53.8 1032 SW | 215 18.9 100 25 29.8 33.3 27.0 6.0 5.7 13.1 2019 -
11/4/22 36.7 0057 18.0 0101 9.2 49.6 2336 SW | 219 22.6 100 28 27.5 31.7 17.6 13.4 13.5 -1.7 0103 -
11/3/22 21.6 1504 7.8 0719 10.2 30.6 2220 NNE | 31 11.4 96 88 13.0 21.2 7.6 - - -10.4 2220 -
11/2/22 14.2 1146 11.2 0057 29.9 73.5 0512 SSW | 206 11.0 92 90 12.7 13.8 10.9 - - -16.6 0512 -
11/1/22 31.5 0101 13.3 2352 38.4 82.8 1130 SSW | 212 13.5 95 41 19.7 25.6 12.7 23.4 23.4 -15.1 0027 -
10/31/22 45.4 0944 31.5 0058 3.7 30.3 1021 N | 11 9.4 42 9 29.9 33.5 25.6 4.6 0.9 27.0 0446 -
10/30/22 51.4 1658 29.6 0420 4.7 19.7 1245 N | 8 9.2 49 17 29.2 36.9 24.6 7.9 6.1 20.3 0223 -
10/29/22 52.2 1615 28.2 0623 6.4 22.3 2010 NNE | 14 10.1 48 21 28.0 38.2 22.8 14.8 9.7 20.4 0007 -
10/28/22 42.9 1414 30.1 0741 18.0 47.4 0301 NE | 40 12.5 52 26 28.0 33.2 24.5 13.3 7.6 12.6 0753 -
10/27/22 43.0 1543 28.8 0101 6.8 39.2 0038 NNE | 33 7.8 46 25 27.0 32.9 22.2 12.9 8.5 18.7 2359 -
10/26/22 38.8 1456 27.4 2302 22.8 54.4 0805 NE | 56 -1.8 65 6 24.0 30.3 20.0 20.9 17.3 9.1 0707 -
10/25/22 41.9 1253 28.9 2131 29.3 53.8 2201 NE | 51 12.7 71 6 28.6 34.4 20.6 8.3 7.0 10.1 2131 -
10/24/22 52.1 1649 23.2 0123 14.6 36.2 0337 NE | 36 7.6 55 4 29.8 39.1 16.2 7.8 6.5 8.9 0126 -
10/23/22 34.0 1601 14.9 0209 12.9 52.7 0512 NE | 56 11.2 94 5 19.2 29.0 13.1 22.5 21.1 -8.1 0512 -
10/22/22 38.3 0101 15.9 0059 23.3 106.1 1029 ENE | 67 23.3 100 34 23.7 30.5 15.4 9.3 17.9 2.9 0048 -
10/21/22 54.1 1255 37.2 2354 25.0 86.6 0053 NE | 54 19.7 61 17 34.9 39.9 30.3 0.0 0.0 19.4 0053 -
10/20/22 58.3 1616 37.4 0607 3.7 24.7 1715 N | 6 14.6 45 15 34.6 41.8 29.6 0.0 0.0 34.0 0506 -
10/19/22 56.7 1517 38.2 0550 12.1 30.0 1238 N | 8 15.2 42 18 35.0 40.7 31.1 0.0 0.0 30.2 0550 -
10/18/22 56.4 1511 39.0 0705 10.2 30.2 1554 N | 6 17.7 42 20 35.7 40.8 31.5 0.0 0.0 34.1 2306 -
10/17/22 59.7 1327 39.5 0504 6.8 27.4 1341 N | 4 15.8 40 20 35.7 43.6 30.6 0.0 0.0 34.9 0207 -
10/16/22 62.4 1517 39.4 0559 6.7 23.5 1645 N | 2 12.7 47 13 35.3 45.1 30.1 0.0 0.0 32.2 0135 -
10/15/22 63.7 1630 39.3 0607 10.0 27.7 1308 N | 4 11.7 36 13 35.4 43.3 31.1 0.0 0.0 31.8 0600 -
10/14/22 60.8 1623 39.8 0652 12.0 34.2 1141 N | 5 13.4 40 12 35.8 42.4 32.1 0.0 0.0 29.4 0651 -
10/13/22 60.6 1451 39.6 0642 14.1 31.4 1523 N | 4 16.6 40 17 36.3 43.0 31.9 0.0 0.0 29.7 0459 -
10/12/22 61.6 1628 38.4 0652 12.0 28.8 1411 N | 4 16.5 43 15 36.1 43.9 31.2 0.0 0.0 29.5 0702 -
10/11/22 62.3 1708 38.6 0547 8.3 23.9 1547 N | 3 19.8 50 17 36.9 44.4 32.3 0.0 0.0 32.2 0525 -
10/10/22 55.0 1442 40.5 0030 7.2 39.9 1412 N | 8 23.8 56 25 37.0 43.0 33.4 0.0 0.0 33.7 2306 -
10/9/22 58.7 1314 41.3 0559 5.9 32.1 1725 N | 3 19.8 52 20 37.5 43.2 32.2 0.0 0.0 35.9 2030 -
10/8/22 67.4 1555 42.3 0523 7.9 28.1 1706 N | 3 18.4 43 13 38.2 47.4 33.0 0.0 0.0 37.5 2301 -
10/7/22 66.3 1550 41.7 0718 8.1 28.4 1211 N | 3 18.9 42 15 38.4 45.7 33.9 0.0 0.0 35.3 0641 -
10/6/22 65.0 1532 42.9 0644 6.2 34.2 1758 N | 3 22.0 44 15 39.2 45.7 34.8 0.0 0.0 40.0 2257 -
10/5/22 62.0 1342 41.6 0530 9.6 34.9 1735 N | 3 23.7 46 20 39.2 45.5 34.3 0.0 0.0 37.8 2238 -
10/4/22 62.6 1423 42.6 0316 12.0 35.2 0550 NE | 36 22.0 41 18 39.5 45.5 34.1 0.0 0.0 38.0 0439 -
10/3/22 67.4 1614 39.2 0651 8.0 24.4 2216 N | 5 22.2 56 15 38.3 47.0 33.7 0.0 0.0 34.6 2306 -
10/2/22 58.6 1548 42.4 0035 18.1 37.8 0519 SW | 226 19.8 51 16 38.3 43.8 33.7 0.0 0.0 34.3 2353 -
10/1/22 57.6 1324 43.2 0247 18.3 37.5 1445 N | 9 20.8 48 19 38.7 42.9 34.2 0.0 0.0 35.8 0058 -
9/30/22 65.5 1728 44.1 0550 8.3 22.7 1554 N | 5 20.2 51 12 39.9 46.5 35.0 0.0 0.0 37.8 0554 -
9/29/22 56.8 1627 44.5 0041 33.6 66.3 0603 SW | 221 22.8 51 20 39.2 42.9 36.8 0.0 0.0 33.4 0447 -
9/28/22 57.7 1409 47.1 0039 24.4 55.6 0057 SW | 218 25.3 48 27 40.2 43.5 38.1 0.0 0.0 35.4 0057 -
9/27/22 59.6 1455 48.2 0055 22.7 47.8 1536 SW | 217 28.4 58 28 42.1 44.9 38.7 0.0 0.0 38.9 0054 -
9/26/22 69.2 1534 49.9 0652 12.9 35.0 1814 SW | 218 32.0 58 23 44.9 49.5 41.1 0.0 0.0 45.8 0648 -
9/25/22 74.6 1518 46.2 0203 10.0 34.4 1846 SW | 225 31.4 64 16 44.1 52.7 37.3 0.0 0.0 40.6 0624 -
9/24/22 68.2 1459 42.7 0238 8.9 29.2 0431 SSW | 212 24.0 48 21 40.5 49.6 33.8 0.0 0.0 35.7 0431 -
9/23/22 68.5 1731 35.9 0712 3.4 18.9 1756 SW | 222 22.6 67 14 37.7 46.8 31.5 0.0 0.0 32.7 0358 -
9/22/22 60.0 1635 36.6 0524 11.7 38.9 0201 S | 188 16.2 61 18 35.2 43.6 27.5 1.3 0.0 23.4 0309 -
9/21/22 43.6 1214 31.2 0647 25.5 46.9 1823 SW | 229 28.3 97 34 33.2 38.2 29.1 0.0 0.9 15.1 0649 -
9/20/22 43.9 1611 33.1 0705 24.6 48.8 1942 S | 190 31.4 96 60 34.8 39.6 31.4 0.0 0.0 18.0 0719 -
9/19/22 52.0 1515 36.8 2027 24.2 48.8 0600 S | 180 30.2 94 43 37.9 43.3 33.5 0.0 0.0 22.3 2027 -
9/18/22 - 1541 32.4 0815 27.1 51.3 2141 SSW | 211 - 100 3 - 42.9 28.6 0.0 0.0 29.0 2141 1549
9/17/22 47.1 1322 33.8 0059 33.6 52.3 0007 SW | 215 30.3 93 14 35.3 38.7 29.3 0.0 0.0 17.5 0045 -
9/16/22 56.6 1400 36.8 0646 3.8 8.0 0656 N | 5 21.2 66 12 36.6 43.2 31.7 0.0 0.0 30.7 0703 -
9/15/22 52.8 1414 39.1 0152 4.8 9.9 0138 N | 7 18.5 72 15 36.0 42.4 30.2 0.0 0.0 32.6 0136 -
9/14/22 50.5 1304 38.1 0651 8.8 12.8 0456 N | 9 32.1 86 48 38.8 43.4 33.3 0.0 0.0 30.7 0651 -
9/13/22 46.8 1624 40.6 2135 5.5 10.9 0050 N | 7 38.0 98 59 41.2 44.8 35.5 0.0 0.0 35.1 0050 -
9/12/22 61.5 1355 42.8 2157 - 0.9 0059 N | 0 41.1 97 45 45.6 51.4 42.1 0.0 0.0 42.8 2158 -
9/11/22 64.5 1153 46.6 0722 - - 0725 N | 0 39.9 82 35 46.6 54.6 43.2 0.0 0.0 46.6 0723 -
9/10/22 67.6 1323 43.1 1939 - - 1943 N | 0 40.2 100 34 47.2 55.7 41.8 0.0 0.0 43.1 1939 -
9/9/22 77.2 1552 52.8 0520 - - 0655 N | 0 31.8 52 17 47.0 53.6 42.8 0.0 0.0 - - -
9/8/22 81.0 1258 53.9 0412 - - 0644 N | 0 31.8 42 16 47.4 54.9 43.4 0.0 0.0 - - -
9/7/22 83.2 1445 56.2 0422 - - 0713 N | 0 32.3 48 16 47.9 55.1 44.2 0.0 0.0 - - -
9/6/22 81.6 1632 59.2 0115 - - 0638 N | 0 29.4 51 13 48.5 62.2 43.2 0.0 0.0 - - -
9/5/22 83.0 1258 56.5 0658 - - 0727 N | 0 31.1 38 12 48.8 54.2 44.3 0.0 0.0 - - -
9/4/22 85.8 1422 60.5 0311 - - 0559 N | 0 33.0 38 14 49.9 56.5 46.2 0.0 0.0 - - -
9/3/22 78.5 1341 59.1 0620 - - 0634 N | 0 29.8 34 17 48.2 53.0 44.9 0.0 0.0 - - -
9/2/22 79.1 1425 58.3 0622 - - 0502 N | 0 28.0 33 15 47.4 52.3 43.9 0.0 0.0 - - -
9/1/22 83.8 1520 57.8 0629 - - 0640 N | 0 28.4 35 14 47.1 54.4 42.8 0.0 0.0 - - -
8/31/22 77.8 1644 58.9 0018 - - - - 27.6 59 16 47.3 52.4 - 0.0 0.0 - - -
8/30/22 - - - - - - - - - - - - - - - - - - -
Max 85.8 - 60.5 - 71.2 109.4 - - 41.1 100 99 49.9 62.2 46.2 24.0 23.8 46.6 - -
Avg - - - - 18.3 - - - 14.7 - - 26.8 - - - 7.0 - - -
Min 14.2 - 1.9 - 0.8 0.8 - - -10.9 27 3 5.4 13.8 0.6 0.0 0.0 -28.4 - -
Total - - - - - - - - - - - - - - - 688.9 - - -